KVYS

Details ICAO KVYS (VYS)
Name ILLINOIS VALLEY RGNL
Region United States
Timezone America/Chicago (UTC-6.0)
Plans Departing 1
Arriving 5
Stats Elevation 654 ft / 199 m (AMSL)
Location 41.351858° -89.153094°
Runways 1
Magnetic Variation 2.658° W
Sunrise 2017-12-17 13:18:26 UTC / 2017-12-17 07:18:26 Local
Sunset 2017-12-17 22:30:01 UTC / 2017-12-17 16:30:01 Local
Advertisement - Login to hide

Runways

ID Width Length Bearing (true) Bearing (mag) Surface Threshold Offset Overrun Length
18 100 ft / 30 m 6,009 ft / 1,832 m 179.58° 182.24° Asphalt 0 ft / 0 m 0 ft / 0 m
36 100 ft / 30 m 6,009 ft / 1,832 m 359.58° 2.24° Asphalt 0 ft / 0 m 0 ft / 0 m

Map

Weather


0- 5 10 15 20 25 30 35+ Temperature / ° C

Clouds and Precipitation
Forecast for 2017-12-17 12:00 UTC. Updated an hour ago

Ground ~20,000 ft ~40,000 ft Winds

METAR

KVYS 170815Z AUTO 07006KT 10SM CLR M02/M05 A3005 RMK AO2 T10171046

TAF

Not found

Frequencies

Recorded 120.02 MHz AWOS 3
Unicom 123.00 MHz CTAF/UNICOM
Warning: Do not use this data for real-world aviation or navigation. No guarantee of current accuracy is given.